createdAt,value
2023-06-08T00:00:48.874Z,100.00
2023-06-08T00:07:06.190Z,100.00
2023-06-08T00:13:11.981Z,100.00
2023-06-08T00:19:31.011Z,100.00
2023-06-08T00:46:55.201Z,100.00
2023-06-08T01:02:18.000Z,100.00
2023-06-08T01:11:26.877Z,100.00
2023-06-08T01:14:49.325Z,100.00
2023-06-08T01:17:51.753Z,100.00
2023-06-08T01:24:25.680Z,100.00
2023-06-08T01:30:07.615Z,100.00
2023-06-08T01:32:52.090Z,100.00
2023-06-08T01:35:27.847Z,100.00
2023-06-08T01:38:21.133Z,100.00
2023-06-08T01:40:57.299Z,100.00
2023-06-08T01:43:51.383Z,100.00
2023-06-08T01:46:48.944Z,100.00
2023-06-08T01:49:36.304Z,100.00
2023-06-08T01:52:20.529Z,100.00
2023-06-08T01:55:02.536Z,100.00
2023-06-08T01:57:45.171Z,100.00
2023-06-08T02:08:06.516Z,100.00
2023-06-08T02:11:18.274Z,100.00
2023-06-08T02:13:45.010Z,100.00
2023-06-08T02:16:14.297Z,100.00
2023-06-08T02:18:43.273Z,100.00
2023-06-08T02:21:15.202Z,100.00
2023-06-08T02:23:44.016Z,100.00
2023-06-08T02:26:12.720Z,100.00
2023-06-08T02:28:42.002Z,100.00
2023-06-08T02:31:11.105Z,100.00
2023-06-08T02:33:40.027Z,100.00
2023-06-08T02:36:10.786Z,100.00
2023-06-08T02:38:41.026Z,100.00
2023-06-08T02:41:09.756Z,100.00
2023-06-08T02:43:38.460Z,100.00
2023-06-08T02:46:07.310Z,100.00
2023-06-08T02:48:36.260Z,100.00
2023-06-08T02:51:04.939Z,100.00
2023-06-08T02:53:33.791Z,100.00
2023-06-08T02:56:03.385Z,100.00
2023-06-08T02:58:32.442Z,100.00
2023-06-08T03:01:19.609Z,100.00
2023-06-08T03:03:33.271Z,100.00
2023-06-08T03:06:02.142Z,100.00
2023-06-08T03:08:31.837Z,100.00
2023-06-08T03:11:00.655Z,100.00
2023-06-08T03:13:30.994Z,100.00
2023-06-08T03:15:59.959Z,100.00
2023-06-08T03:18:28.687Z,100.00
2023-06-08T03:20:59.364Z,100.00
2023-06-08T03:23:29.821Z,100.00
2023-06-08T03:25:59.922Z,100.00
2023-06-08T03:28:28.603Z,100.00
2023-06-08T03:30:57.334Z,100.00
2023-06-08T03:33:26.946Z,100.00
2023-06-08T03:35:55.596Z,100.00
2023-06-08T03:38:25.949Z,100.00
2023-06-08T03:40:54.678Z,100.00
2023-06-08T03:43:23.408Z,100.00
2023-06-08T03:45:52.132Z,100.00
2023-06-08T03:48:20.869Z,100.00
2023-06-08T03:50:49.595Z,100.00
2023-06-08T03:53:18.323Z,100.00
2023-06-08T03:55:47.212Z,100.00
2023-06-08T03:58:15.904Z,100.00
2023-06-08T04:00:44.614Z,100.00
2023-06-08T04:03:13.573Z,100.00
2023-06-08T04:05:43.092Z,100.00
2023-06-08T04:08:11.923Z,100.00
2023-06-08T04:10:40.784Z,100.00
2023-06-08T04:13:09.433Z,100.00
2023-06-08T04:15:38.461Z,90.26
2023-06-08T04:18:08.854Z,85.40
2023-06-08T04:20:37.784Z,79.16
2023-06-08T04:23:06.507Z,72.95
2023-06-08T04:25:35.297Z,71.07
2023-06-08T04:28:03.978Z,69.02
2023-06-08T04:30:33.208Z,70.52
2023-06-08T04:33:05.505Z,77.90
2023-06-08T04:35:34.265Z,84.20
2023-06-08T04:38:03.122Z,93.51
2023-06-08T04:40:33.945Z,97.86
2023-06-08T04:43:03.418Z,100.00
2023-06-08T04:45:33.737Z,99.01
2023-06-08T04:50:33.874Z,97.56
2023-06-08T04:53:03.439Z,97.41
2023-06-08T04:55:32.158Z,99.53
2023-06-08T04:58:01.180Z,98.40
2023-06-08T05:00:31.410Z,95.39
2023-06-08T05:03:00.302Z,96.77
2023-06-08T05:05:29.276Z,93.75
2023-06-08T05:07:58.563Z,92.06
2023-06-08T05:10:29.481Z,93.18
2023-06-08T05:12:59.219Z,95.70
2023-06-08T05:15:27.903Z,95.22
2023-06-08T05:17:57.090Z,95.66
2023-06-08T05:20:27.830Z,95.94
2023-06-08T05:22:56.395Z,95.13
2023-06-08T05:25:25.213Z,95.76
2023-06-08T05:27:54.056Z,93.94
2023-06-08T05:30:22.779Z,86.65
2023-06-08T05:32:51.535Z,85.24
2023-06-08T05:35:20.430Z,86.43
2023-06-08T05:37:49.168Z,85.58
2023-06-08T05:40:19.523Z,84.76
2023-06-08T05:42:48.250Z,80.83
2023-06-08T05:45:17.786Z,78.83
2023-06-08T05:47:46.538Z,74.85
2023-06-08T05:50:15.688Z,76.36
2023-06-08T05:52:46.117Z,76.93
2023-06-08T05:55:14.867Z,77.58
2023-06-08T05:57:46.731Z,75.58
2023-06-08T06:00:16.390Z,73.55
2023-06-08T06:02:45.141Z,71.60
2023-06-08T06:05:14.173Z,71.47
2023-06-08T06:07:43.001Z,70.68
2023-06-08T06:10:14.155Z,70.07
2023-06-08T06:12:42.880Z,70.99
2023-06-08T06:15:12.054Z,66.80
2023-06-08T06:17:41.222Z,64.96
2023-06-08T06:20:10.827Z,64.05
2023-06-08T06:22:39.822Z,64.49
2023-06-08T06:25:09.340Z,63.56
2023-06-08T06:27:48.058Z,63.25
2023-06-08T06:30:12.007Z,62.78
2023-06-08T06:32:40.928Z,61.34
2023-06-08T06:35:11.595Z,61.35
2023-06-08T06:37:40.911Z,61.11
2023-06-08T06:40:11.070Z,60.21
2023-06-08T06:42:40.429Z,61.57
2023-06-08T06:45:11.050Z,60.34
2023-06-08T06:47:45.307Z,58.99
2023-06-08T06:50:14.100Z,59.79
2023-06-08T06:52:42.834Z,61.17
2023-06-08T06:55:11.567Z,60.09
2023-06-08T06:57:41.874Z,59.78
2023-06-08T07:00:12.173Z,60.61
2023-06-08T07:03:01.102Z,58.55
2023-06-08T07:05:26.571Z,60.83
2023-06-08T07:11:36.875Z,58.06
2023-06-08T07:14:06.263Z,55.92
2023-06-08T07:16:35.318Z,56.57
2023-06-08T07:19:04.258Z,55.14
2023-06-08T07:21:37.661Z,55.75
2023-06-08T07:24:36.644Z,57.18
2023-06-08T07:26:42.522Z,57.77
2023-06-08T07:29:11.321Z,55.60
2023-06-08T07:31:40.593Z,55.19
2023-06-08T07:34:09.649Z,55.53
2023-06-08T07:36:38.237Z,54.62
2023-06-08T07:39:08.637Z,53.82
2023-06-08T07:41:37.372Z,55.63
2023-06-08T07:44:06.160Z,55.16
2023-06-08T07:46:37.995Z,55.81
2023-06-08T07:49:07.042Z,54.11
2023-06-08T07:51:36.256Z,55.57
2023-06-08T07:54:08.246Z,54.34
2023-06-08T07:56:37.191Z,54.42
2023-06-08T07:59:06.000Z,54.73
2023-06-08T08:01:35.916Z,53.59
2023-06-08T08:04:04.847Z,53.73
2023-06-08T08:06:54.221Z,52.51
2023-06-08T08:09:27.569Z,52.73
2023-06-08T08:12:05.728Z,52.51
2023-06-08T08:14:39.002Z,52.24
2023-06-08T08:17:15.907Z,51.84
2023-06-08T08:28:36.969Z,51.35
2023-06-08T08:31:52.143Z,51.18
2023-06-08T08:34:29.219Z,51.73
2023-06-08T08:40:59.782Z,50.28
2023-06-08T08:43:45.172Z,52.38
2023-06-08T08:46:23.964Z,53.23
2023-06-08T08:48:55.010Z,51.65
2023-06-08T08:51:25.880Z,50.71
2023-06-08T08:54:03.770Z,49.67
2023-06-08T08:59:15.854Z,50.33
2023-06-08T09:01:50.506Z,50.78
2023-06-08T09:04:21.309Z,50.65
2023-06-08T09:06:52.811Z,52.15
2023-06-08T09:09:22.394Z,52.46
2023-06-08T09:12:06.337Z,52.23
2023-06-08T09:14:35.109Z,51.61
2023-06-08T09:17:03.953Z,50.00
2023-06-08T09:19:33.669Z,51.22
2023-06-08T09:22:04.179Z,50.32
2023-06-08T09:24:33.585Z,50.94
2023-06-08T09:27:12.870Z,50.97
2023-06-08T09:29:45.511Z,50.16
2023-06-08T09:32:15.290Z,50.02
2023-06-08T09:34:57.194Z,50.14
2023-06-08T09:37:28.327Z,48.44
2023-06-08T09:40:02.087Z,46.61
2023-06-08T09:42:55.875Z,47.31
2023-06-08T09:45:24.618Z,46.73
2023-06-08T09:48:06.884Z,46.50
2023-06-08T09:50:56.330Z,46.17
2023-06-08T09:53:27.733Z,46.22
2023-06-08T09:55:57.433Z,46.20
2023-06-08T09:58:27.423Z,45.46
2023-06-08T10:00:59.941Z,46.61
2023-06-08T10:03:36.007Z,46.19
2023-06-08T10:09:14.527Z,45.76
2023-06-08T10:11:38.266Z,45.69
2023-06-08T10:14:10.630Z,45.44
2023-06-08T10:20:45.223Z,45.29
2023-06-08T10:30:47.756Z,44.40
2023-06-08T10:33:23.438Z,45.36
2023-06-08T10:36:13.490Z,45.26
2023-06-08T10:39:01.158Z,44.35
2023-06-08T10:41:45.049Z,44.00
2023-06-08T10:44:32.449Z,42.47
2023-06-08T10:47:14.476Z,43.21
2023-06-08T10:49:46.372Z,43.79
2023-06-08T10:52:27.476Z,43.18
2023-06-08T10:55:25.605Z,43.34
2023-06-08T10:57:57.273Z,43.62
2023-06-08T11:00:49.423Z,43.50
2023-06-08T11:03:27.019Z,43.14
2023-06-08T11:05:56.092Z,41.89
2023-06-08T11:08:28.063Z,41.06
2023-06-08T11:10:57.465Z,40.92
2023-06-08T11:13:27.360Z,40.53
2023-06-08T11:15:56.368Z,40.89
2023-06-08T11:18:25.737Z,41.43
2023-06-08T11:20:56.592Z,40.75
2023-06-08T11:23:25.343Z,41.44
2023-06-08T11:25:54.069Z,41.92
2023-06-08T11:28:26.114Z,39.27
2023-06-08T11:30:59.801Z,39.40
2023-06-08T11:33:33.439Z,40.26
2023-06-08T11:36:02.612Z,39.99
2023-06-08T11:38:31.647Z,39.32
2023-06-08T11:41:00.437Z,39.49
2023-06-08T11:43:30.911Z,39.67
2023-06-08T11:46:00.957Z,41.96
2023-06-08T11:48:29.814Z,44.51
2023-06-08T11:50:58.696Z,44.49
2023-06-08T11:53:27.568Z,45.22
2023-06-08T11:55:57.800Z,44.95
2023-06-08T11:58:29.643Z,44.36
2023-06-08T12:01:13.239Z,43.87
2023-06-08T12:03:46.753Z,45.34
2023-06-08T12:06:17.693Z,44.58
2023-06-08T12:08:47.145Z,45.00
2023-06-08T12:11:16.065Z,43.70
2023-06-08T12:13:45.829Z,41.65
2023-06-08T12:16:15.184Z,41.46
2023-06-08T12:18:46.173Z,42.77
2023-06-08T12:21:20.501Z,44.25
2023-06-08T12:23:49.195Z,44.84
2023-06-08T12:26:21.112Z,45.84
2023-06-08T12:28:49.884Z,44.71
2023-06-08T12:31:18.727Z,45.17
2023-06-08T12:33:47.565Z,43.73
2023-06-08T12:36:16.390Z,43.16
2023-06-08T12:38:45.709Z,45.31
2023-06-08T12:41:14.672Z,45.00
2023-06-08T12:43:44.966Z,46.26
2023-06-08T12:46:20.485Z,46.73
2023-06-08T12:48:50.042Z,46.63
2023-06-08T12:51:20.236Z,46.69
2023-06-08T12:53:49.069Z,46.24
2023-06-08T12:56:22.251Z,46.09
2023-06-08T12:58:51.403Z,46.24
2023-06-08T13:01:21.221Z,46.59
2023-06-08T13:03:54.340Z,46.00
2023-06-08T13:06:23.371Z,45.83
2023-06-08T13:08:52.422Z,47.06
2023-06-08T13:11:21.311Z,46.61
2023-06-08T13:13:50.091Z,46.01
2023-06-08T13:16:18.903Z,45.63
2023-06-08T13:18:47.787Z,45.62
2023-06-08T13:21:16.493Z,45.29
2023-06-08T13:23:45.329Z,45.90
2023-06-08T13:26:14.086Z,46.17
2023-06-08T13:28:42.909Z,46.63
2023-06-08T13:31:12.314Z,45.51
2023-06-08T13:33:41.079Z,45.01
2023-06-08T13:36:09.819Z,44.12
2023-06-08T13:38:39.460Z,43.99
2023-06-08T13:41:08.510Z,43.86
2023-06-08T13:43:38.074Z,43.85
2023-06-08T13:46:07.019Z,41.66
2023-06-08T13:48:35.793Z,41.41
2023-06-08T13:51:05.856Z,42.16
2023-06-08T13:53:36.130Z,42.66
2023-06-08T13:56:08.111Z,44.08
2023-06-08T13:58:37.141Z,45.17
2023-06-08T14:01:06.000Z,45.06
2023-06-08T14:03:36.503Z,45.14
2023-06-08T14:06:05.710Z,45.57
2023-06-08T14:08:36.609Z,44.99
2023-06-08T14:11:05.313Z,44.85
2023-06-08T14:13:34.326Z,45.24
2023-06-08T14:16:04.756Z,46.99
2023-06-08T14:18:33.633Z,47.52
2023-06-08T14:21:09.222Z,47.10
2023-06-08T14:23:38.457Z,47.15
2023-06-08T14:26:07.323Z,47.90
2023-06-08T14:28:36.639Z,48.21
2023-06-08T14:31:05.832Z,48.39
2023-06-08T14:33:34.652Z,48.34
2023-06-08T14:36:03.652Z,48.32
2023-06-08T14:38:32.648Z,48.27
2023-06-08T14:41:02.866Z,48.78
2023-06-08T14:43:33.147Z,48.58
2023-06-08T14:46:01.899Z,48.25
2023-06-08T14:48:31.339Z,48.35
2023-06-08T14:51:00.279Z,47.74
2023-06-08T14:53:29.060Z,47.51
2023-06-08T14:55:57.772Z,46.88
2023-06-08T14:58:26.538Z,46.03
2023-06-08T15:00:55.434Z,44.72
2023-06-08T15:03:24.187Z,44.25
2023-06-08T15:05:53.138Z,44.44
2023-06-08T15:08:21.915Z,44.63
2023-06-08T15:10:50.961Z,43.79
2023-06-08T15:13:19.853Z,44.15
2023-06-08T15:15:48.808Z,44.37
2023-06-08T15:18:17.794Z,45.10
2023-06-08T15:20:48.266Z,46.87
2023-06-08T15:23:16.898Z,47.69
2023-06-08T15:25:45.703Z,47.98
2023-06-08T15:28:14.977Z,49.34
2023-06-08T15:30:45.683Z,50.23
2023-06-08T15:33:14.670Z,50.63
2023-06-08T15:35:43.559Z,51.00
2023-06-08T15:38:13.286Z,50.88
2023-06-08T15:40:42.380Z,51.27
2023-06-08T15:43:16.904Z,51.72
2023-06-08T15:45:46.176Z,52.15
2023-06-08T15:48:14.962Z,52.68
2023-06-08T15:50:43.759Z,52.99
2023-06-08T15:53:12.354Z,53.06
2023-06-08T15:55:42.197Z,53.35
2023-06-08T15:58:10.866Z,53.48
2023-06-08T16:00:39.578Z,54.41
2023-06-08T16:03:08.543Z,55.03
2023-06-08T16:05:37.260Z,55.32
2023-06-08T16:08:06.231Z,54.98
2023-06-08T16:10:34.947Z,55.41
2023-06-08T16:13:03.643Z,56.24
2023-06-08T16:15:32.478Z,56.30
2023-06-08T16:18:01.286Z,56.94
2023-06-08T16:20:30.089Z,57.29
2023-06-08T16:22:58.966Z,57.25
2023-06-08T16:25:27.801Z,57.44
2023-06-08T16:28:00.052Z,57.58
2023-06-08T16:30:28.944Z,58.59
2023-06-08T16:32:57.640Z,58.25
2023-06-08T16:35:26.324Z,59.09
2023-06-08T16:37:55.177Z,58.72
2023-06-08T16:40:25.004Z,59.17
2023-06-08T16:42:53.817Z,59.84
2023-06-08T16:45:22.677Z,61.01
2023-06-08T16:47:52.438Z,61.15
2023-06-08T16:50:21.532Z,61.19
2023-06-08T16:52:51.698Z,61.64
2023-06-08T16:55:20.509Z,61.65
2023-06-08T16:57:49.105Z,61.51
2023-06-08T17:00:18.104Z,62.15
2023-06-08T17:02:46.880Z,62.47
2023-06-08T17:05:16.414Z,62.49
2023-06-08T17:07:45.318Z,63.38
2023-06-08T17:10:14.116Z,62.06
2023-06-08T17:12:42.716Z,62.35
2023-06-08T17:15:11.881Z,62.47
2023-06-08T17:17:40.708Z,63.11
2023-06-08T17:20:12.191Z,63.55
2023-06-08T17:22:41.013Z,63.58
2023-06-08T17:25:10.080Z,64.04
2023-06-08T17:27:38.847Z,63.88
2023-06-08T17:30:09.956Z,63.84
2023-06-08T17:32:38.718Z,64.28
2023-06-08T17:35:10.766Z,64.78
2023-06-08T17:37:39.468Z,65.33
2023-06-08T17:40:08.953Z,65.69
2023-06-08T17:42:37.646Z,66.63
2023-06-08T17:45:07.051Z,66.70
2023-06-08T17:47:36.349Z,65.97
2023-06-08T17:50:05.803Z,66.15
2023-06-08T17:52:38.851Z,66.28
2023-06-08T17:55:09.633Z,66.74
2023-06-08T17:57:38.693Z,67.11
2023-06-08T18:00:08.917Z,67.00
2023-06-08T18:02:37.800Z,68.67
2023-06-08T18:05:07.661Z,68.43
2023-06-08T18:07:36.547Z,68.28
2023-06-08T18:10:05.688Z,69.94
2023-06-08T18:12:35.412Z,70.69
2023-06-08T18:15:04.484Z,70.01
2023-06-08T18:17:33.525Z,69.00
2023-06-08T18:20:03.569Z,69.67
2023-06-08T18:22:32.265Z,70.19
2023-06-08T18:25:02.542Z,70.17
2023-06-08T18:27:32.914Z,68.22
2023-06-08T18:30:01.676Z,67.66
2023-06-08T18:32:30.519Z,67.98
2023-06-08T18:34:59.922Z,68.63
2023-06-08T18:37:29.765Z,67.92
2023-06-08T18:39:59.416Z,67.61
2023-06-08T18:42:28.559Z,68.32
2023-06-08T18:44:59.706Z,67.75
2023-06-08T18:47:29.352Z,67.89
2023-06-08T18:49:58.125Z,68.43
2023-06-08T18:52:27.047Z,69.27
2023-06-08T18:54:59.891Z,69.02
2023-06-08T18:57:28.719Z,72.06
2023-06-08T18:59:58.108Z,78.80
2023-06-08T19:02:35.772Z,89.88
2023-06-08T19:05:03.209Z,98.24
2023-06-08T19:07:33.604Z,100.00
2023-06-08T19:10:07.333Z,100.00
2023-06-08T19:19:08.446Z,100.00
2023-06-08T19:21:15.034Z,100.00
2023-06-08T19:23:45.557Z,100.00
2023-06-08T19:26:14.593Z,100.00
2023-06-08T19:28:43.392Z,100.00
2023-06-08T19:31:13.697Z,100.00
2023-06-08T19:33:42.579Z,100.00
2023-06-08T19:39:00.185Z,100.00
2023-06-08T19:41:35.154Z,100.00
2023-06-08T19:44:06.406Z,100.00
2023-06-08T19:46:53.875Z,100.00
2023-06-08T19:49:25.907Z,100.00
2023-06-08T19:52:28.370Z,100.00
2023-06-08T19:55:00.596Z,100.00
2023-06-08T19:58:02.960Z,100.00
2023-06-08T20:06:59.774Z,100.00
2023-06-08T20:08:44.697Z,100.00
2023-06-08T20:11:13.937Z,100.00
2023-06-08T20:13:42.854Z,100.00
2023-06-08T20:16:13.269Z,100.00
2023-06-08T20:18:42.446Z,100.00
2023-06-08T20:21:13.113Z,100.00
2023-06-08T20:23:41.850Z,100.00
2023-06-08T20:26:10.628Z,100.00
2023-06-08T20:28:39.246Z,100.00
2023-06-08T20:31:09.618Z,100.00
2023-06-08T20:33:38.342Z,100.00
2023-06-08T20:36:07.231Z,100.00
2023-06-08T20:38:37.518Z,100.00
2023-06-08T20:41:08.398Z,100.00
2023-06-08T20:43:37.022Z,100.00
2023-06-08T20:46:21.087Z,100.00
2023-06-08T20:48:47.194Z,100.00
2023-06-08T20:51:16.020Z,100.00
2023-06-08T20:53:45.882Z,100.00
2023-06-08T20:56:32.123Z,100.00
2023-06-08T20:59:00.901Z,100.00
2023-06-08T21:01:30.165Z,100.00
2023-06-08T21:03:59.155Z,100.00
2023-06-08T21:06:29.565Z,100.00
2023-06-08T21:08:58.493Z,100.00
2023-06-08T21:11:27.401Z,100.00
2023-06-08T21:13:56.395Z,100.00
2023-06-08T21:16:25.129Z,100.00
2023-06-08T21:18:53.924Z,100.00
2023-06-08T21:21:22.776Z,100.00
2023-06-08T21:24:00.760Z,100.00
2023-06-08T21:26:30.830Z,100.00
2023-06-08T21:29:00.155Z,100.00
2023-06-08T21:31:29.022Z,100.00
2023-06-08T21:33:57.861Z,100.00
2023-06-08T21:36:26.614Z,100.00
2023-06-08T21:38:56.009Z,100.00
2023-06-08T21:41:24.737Z,100.00
2023-06-08T21:43:53.552Z,100.00
2023-06-08T21:46:22.408Z,100.00
2023-06-08T21:48:51.253Z,100.00
2023-06-08T21:51:20.237Z,100.00
2023-06-08T21:53:49.020Z,100.00
2023-06-08T21:56:19.334Z,100.00
2023-06-08T21:58:48.058Z,100.00
2023-06-08T22:01:17.623Z,100.00
2023-06-08T22:03:46.356Z,100.00
2023-06-08T22:06:16.813Z,100.00
2023-06-08T22:08:45.587Z,100.00
2023-06-08T22:11:14.654Z,100.00
2023-06-08T22:13:45.074Z,98.74
2023-06-08T22:16:13.730Z,97.90
2023-06-08T22:18:42.574Z,96.93
2023-06-08T22:21:12.812Z,95.16
2023-06-08T22:23:41.873Z,91.31
2023-06-08T22:26:12.236Z,90.48
2023-06-08T22:28:41.882Z,89.47
2023-06-08T22:31:11.466Z,90.26
2023-06-08T22:33:40.948Z,90.18
2023-06-08T22:36:11.657Z,89.62
2023-06-08T22:38:40.828Z,89.86
2023-06-08T22:41:09.550Z,89.32
2023-06-08T22:43:38.307Z,89.09
2023-06-08T22:46:07.301Z,88.82
2023-06-08T22:48:37.810Z,89.56
2023-06-08T22:51:08.148Z,89.49
2023-06-08T22:53:37.851Z,89.80
2023-06-08T22:56:08.603Z,89.30
2023-06-08T22:58:37.311Z,88.68
2023-06-08T23:01:06.556Z,87.98
2023-06-08T23:03:35.619Z,88.79
2023-06-08T23:06:04.411Z,86.50
2023-06-08T23:21:44.857Z,79.84
2023-06-08T23:24:13.711Z,80.03
2023-06-08T23:26:43.157Z,79.88
2023-06-08T23:29:11.976Z,80.00
2023-06-08T23:31:40.832Z,80.32
2023-06-08T23:34:10.792Z,80.38
2023-06-08T23:36:42.701Z,79.71
2023-06-08T23:39:13.071Z,80.31
2023-06-08T23:41:42.473Z,80.52
2023-06-08T23:44:11.358Z,79.98
2023-06-08T23:46:42.789Z,80.51
2023-06-08T23:49:11.568Z,80.41
2023-06-08T23:51:41.861Z,81.45
2023-06-08T23:54:12.337Z,81.91
2023-06-08T23:56:41.161Z,81.75
2023-06-08T23:59:09.846Z,82.09
